createdAt,value
2023-03-05T00:00:18.936Z,4.82
2023-03-05T00:02:46.942Z,4.77
2023-03-05T00:05:14.906Z,4.72
2023-03-05T00:07:42.859Z,4.69
2023-03-05T00:10:11.759Z,4.66
2023-03-05T00:12:39.668Z,4.61
2023-03-05T00:15:09.284Z,4.65
2023-03-05T00:17:38.576Z,4.70
2023-03-05T00:20:07.405Z,4.68
2023-03-05T00:22:35.741Z,4.69
2023-03-05T00:25:04.110Z,4.61
2023-03-05T00:27:32.094Z,4.59
2023-03-05T00:30:00.087Z,4.58
2023-03-05T00:32:28.171Z,4.56
2023-03-05T00:34:57.509Z,4.54
2023-03-05T00:37:25.423Z,4.52
2023-03-05T00:39:53.288Z,4.52
2023-03-05T00:42:21.188Z,4.54
2023-03-05T00:44:49.086Z,4.56
2023-03-05T00:47:18.410Z,4.55
2023-03-05T00:49:46.625Z,4.51
2023-03-05T00:52:15.908Z,4.47
2023-03-05T00:54:43.896Z,4.41
2023-03-05T00:57:11.816Z,4.38
2023-03-05T00:59:40.640Z,4.40
2023-03-05T01:02:08.563Z,4.40
2023-03-05T01:04:36.477Z,4.36
2023-03-05T01:07:06.617Z,4.33
2023-03-05T01:09:35.948Z,4.32
2023-03-05T01:12:03.962Z,4.35
2023-03-05T01:14:32.503Z,4.05
2023-03-05T01:17:00.415Z,3.97
2023-03-05T01:19:28.316Z,4.11
2023-03-05T01:21:56.304Z,4.17
2023-03-05T01:24:24.413Z,4.18
2023-03-05T01:26:53.771Z,4.20
2023-03-05T01:29:21.648Z,4.22
2023-03-05T01:31:49.854Z,4.20
2023-03-05T01:34:18.156Z,4.21
2023-03-05T01:36:46.087Z,4.20
2023-03-05T01:39:14.052Z,4.24
2023-03-05T01:41:42.002Z,4.20
2023-03-05T01:44:22.442Z,4.17
2023-03-05T01:46:50.744Z,4.16
2023-03-05T01:49:24.029Z,4.16
2023-03-05T01:52:02.773Z,4.12
2023-03-05T01:54:34.703Z,4.08
2023-03-05T01:57:08.761Z,4.12
2023-03-05T01:59:40.338Z,4.12
2023-03-05T02:02:09.079Z,4.13
2023-03-05T02:04:43.675Z,4.05
2023-03-05T02:07:12.725Z,4.01
2023-03-05T02:09:41.219Z,4.01
2023-03-05T02:12:11.863Z,4.01
2023-03-05T02:14:43.653Z,3.99
2023-03-05T02:17:12.197Z,3.98
2023-03-05T02:19:53.241Z,3.94
2023-03-05T02:22:25.162Z,3.99
2023-03-05T02:24:53.720Z,4.01
2023-03-05T02:27:27.268Z,4.00
2023-03-05T02:29:55.618Z,3.98
2023-03-05T02:32:23.562Z,3.95
2023-03-05T02:34:51.615Z,3.98
2023-03-05T02:37:19.802Z,3.90
2023-03-05T02:39:49.068Z,3.80
2023-03-05T02:42:17.042Z,3.77
2023-03-05T02:44:44.951Z,3.81
2023-03-05T02:47:12.824Z,3.86
2023-03-05T02:49:41.160Z,3.87
2023-03-05T02:52:09.329Z,3.81
2023-03-05T02:54:37.237Z,3.78
2023-03-05T02:57:06.611Z,3.82
2023-03-05T02:59:34.566Z,3.76
2023-03-05T03:02:03.130Z,3.72
2023-03-05T03:04:31.053Z,3.66
2023-03-05T03:06:59.117Z,3.62
2023-03-05T03:09:27.123Z,3.56
2023-03-05T03:11:55.116Z,3.52
2023-03-05T03:14:24.369Z,3.58
2023-03-05T03:16:52.338Z,3.62
2023-03-05T03:19:20.384Z,3.62
2023-03-05T03:21:49.925Z,3.60
2023-03-05T03:24:17.858Z,3.60
2023-03-05T03:26:46.518Z,3.60
2023-03-05T03:29:14.450Z,3.57
2023-03-05T03:31:44.951Z,3.16
2023-03-05T03:34:15.060Z,3.02
2023-03-05T03:36:43.709Z,3.13
2023-03-05T03:39:12.179Z,3.26
2023-03-05T03:41:43.439Z,3.33
2023-03-05T03:44:11.683Z,3.38
2023-03-05T03:46:40.384Z,3.41
2023-03-05T03:49:09.731Z,3.44
2023-03-05T03:51:37.656Z,3.43
2023-03-05T03:54:05.774Z,3.39
2023-03-05T03:56:33.685Z,3.42
2023-03-05T03:59:01.576Z,3.45
2023-03-05T04:01:29.644Z,3.42
2023-03-05T04:03:57.596Z,3.42
2023-03-05T04:06:27.017Z,3.45
2023-03-05T04:08:54.939Z,3.42
2023-03-05T04:11:23.049Z,3.41
2023-03-05T04:13:51.532Z,3.42
2023-03-05T04:16:20.629Z,3.40
2023-03-05T04:18:48.924Z,3.34
2023-03-05T04:21:16.927Z,3.29
2023-03-05T04:23:46.478Z,2.88
2023-03-05T04:26:14.400Z,2.60
2023-03-05T04:28:42.327Z,2.47
2023-03-05T04:31:10.341Z,2.41
2023-03-05T04:33:38.273Z,2.49
2023-03-05T04:36:06.962Z,2.47
2023-03-05T04:38:34.850Z,2.53
2023-03-05T04:41:04.274Z,2.56
2023-03-05T04:43:32.252Z,2.63
2023-03-05T04:46:00.145Z,2.51
2023-03-05T04:48:28.123Z,2.51
2023-03-05T04:50:57.944Z,2.62
2023-03-05T04:53:26.392Z,2.70
2023-03-05T04:55:54.533Z,2.79
2023-03-05T04:58:24.988Z,2.82
2023-03-05T05:00:52.966Z,2.80
2023-03-05T05:03:20.925Z,2.79
2023-03-05T05:05:56.143Z,2.77
2023-03-05T05:08:24.430Z,2.77
2023-03-05T05:11:00.461Z,2.76
2023-03-05T05:13:30.425Z,2.69
2023-03-05T05:15:59.072Z,2.77
2023-03-05T05:18:27.235Z,2.81
2023-03-05T05:20:55.181Z,2.83
2023-03-05T05:23:23.162Z,2.83
2023-03-05T05:25:57.699Z,2.83
2023-03-05T05:28:25.880Z,2.81
2023-03-05T05:30:55.669Z,2.82
2023-03-05T05:33:23.995Z,2.78
2023-03-05T05:35:52.257Z,2.74
2023-03-05T05:38:20.561Z,2.73
2023-03-05T05:40:48.486Z,2.70
2023-03-05T05:43:16.398Z,2.66
2023-03-05T05:45:45.203Z,2.70
2023-03-05T05:48:14.650Z,2.69
2023-03-05T05:50:42.593Z,2.67
2023-03-05T05:53:10.510Z,2.72
2023-03-05T05:55:41.395Z,2.77
2023-03-05T05:58:09.341Z,2.76
2023-03-05T06:00:37.252Z,2.74
2023-03-05T06:03:05.435Z,2.74
2023-03-05T06:05:34.801Z,2.71
2023-03-05T06:08:02.724Z,2.71
2023-03-05T06:10:30.648Z,2.72
2023-03-05T06:12:58.597Z,2.72
2023-03-05T06:15:26.488Z,2.69
2023-03-05T06:17:54.658Z,2.74
2023-03-05T06:20:23.190Z,2.71
2023-03-05T06:22:52.538Z,2.73
2023-03-05T06:25:20.587Z,2.74
2023-03-05T06:27:48.577Z,2.76
2023-03-05T06:30:16.739Z,2.74
2023-03-05T06:32:44.662Z,2.72
2023-03-05T06:35:14.098Z,2.69
2023-03-05T06:37:42.052Z,2.68
2023-03-05T06:40:13.257Z,2.65
2023-03-05T06:42:41.219Z,2.63
2023-03-05T06:45:10.774Z,2.69
2023-03-05T06:47:38.680Z,2.72
2023-03-05T06:50:07.716Z,2.69
2023-03-05T06:52:35.697Z,2.52
2023-03-05T06:55:04.293Z,2.47
2023-03-05T06:57:33.590Z,2.50
2023-03-05T07:00:01.501Z,2.65
2023-03-05T07:02:29.445Z,2.78
2023-03-05T07:04:57.400Z,2.89
2023-03-05T07:07:25.303Z,2.98
2023-03-05T07:09:53.833Z,3.01
2023-03-05T07:12:21.740Z,2.97
2023-03-05T07:14:51.197Z,3.06
2023-03-05T07:17:19.235Z,2.95
2023-03-05T07:19:47.226Z,2.83
2023-03-05T07:22:15.093Z,2.84
2023-03-05T07:24:43.015Z,2.87
2023-03-05T07:27:10.973Z,2.86
2023-03-05T07:29:38.984Z,2.75
2023-03-05T07:32:08.778Z,2.70
2023-03-05T07:34:38.712Z,2.62
2023-03-05T07:37:06.828Z,2.61
2023-03-05T07:39:34.756Z,2.68
2023-03-05T07:42:02.763Z,2.70
2023-03-05T07:44:47.738Z,2.69
2023-03-05T07:47:17.152Z,2.83
2023-03-05T07:49:45.066Z,2.75
2023-03-05T07:52:13.039Z,2.79
2023-03-05T07:54:41.149Z,2.91
2023-03-05T07:57:09.766Z,3.12
2023-03-05T07:59:39.080Z,3.26
2023-03-05T08:02:07.273Z,3.27
2023-03-05T08:04:36.676Z,3.33
2023-03-05T08:07:04.747Z,3.39
2023-03-05T08:09:32.707Z,3.38
2023-03-05T08:12:00.844Z,3.31
2023-03-05T08:14:28.991Z,3.30
2023-03-05T08:16:56.957Z,3.33
2023-03-05T08:19:24.806Z,3.47
2023-03-05T08:21:55.600Z,3.63
2023-03-05T08:24:29.409Z,3.78
2023-03-05T08:26:58.110Z,3.90
2023-03-05T08:29:26.531Z,4.13
2023-03-05T08:31:55.797Z,4.20
2023-03-05T08:34:23.709Z,4.22
2023-03-05T08:36:51.922Z,4.25
2023-03-05T08:39:21.402Z,4.37
2023-03-05T08:41:49.551Z,4.44
2023-03-05T08:44:17.471Z,4.57
2023-03-05T08:46:45.485Z,4.69
2023-03-05T08:49:13.388Z,4.81
2023-03-05T08:51:41.320Z,4.84
2023-03-05T08:54:10.382Z,4.81
2023-03-05T08:56:39.747Z,5.05
2023-03-05T08:59:08.723Z,4.98
2023-03-05T09:01:36.693Z,4.70
2023-03-05T09:04:05.044Z,4.18
2023-03-05T09:06:34.456Z,4.27
2023-03-05T09:09:02.374Z,4.64
2023-03-05T09:11:30.365Z,4.78
2023-03-05T09:13:59.671Z,4.66
2023-03-05T09:16:28.524Z,4.73
2023-03-05T09:18:56.447Z,4.95
2023-03-05T09:21:24.372Z,5.02
2023-03-05T09:23:52.614Z,4.99
2023-03-05T09:26:21.261Z,5.02
2023-03-05T09:28:49.633Z,4.96
2023-03-05T09:31:19.529Z,4.98
2023-03-05T09:33:48.915Z,5.14
2023-03-05T09:36:22.766Z,5.21
2023-03-05T09:38:51.213Z,5.06
2023-03-05T09:41:27.933Z,4.99
2023-03-05T09:44:03.993Z,4.97
2023-03-05T09:46:46.300Z,5.18
2023-03-05T09:49:19.102Z,5.24
2023-03-05T09:51:49.383Z,5.29
2023-03-05T09:54:21.307Z,5.22
2023-03-05T09:56:52.283Z,5.39
2023-03-05T09:59:28.739Z,5.48
2023-03-05T10:02:03.360Z,5.25
2023-03-05T10:04:43.885Z,5.14
2023-03-05T10:07:18.341Z,5.44
2023-03-05T10:09:52.316Z,5.65
2023-03-05T10:12:27.987Z,5.88
2023-03-05T10:14:56.262Z,5.82
2023-03-05T10:17:48.386Z,5.75
2023-03-05T10:20:42.010Z,5.85
2023-03-05T10:23:24.782Z,5.98
2023-03-05T10:26:28.276Z,5.94
2023-03-05T10:29:08.197Z,5.92
2023-03-05T10:31:53.445Z,6.05
2023-03-05T10:34:40.401Z,6.36
2023-03-05T10:37:21.402Z,6.51
2023-03-05T10:40:11.796Z,6.67
2023-03-05T10:42:48.373Z,6.83
2023-03-05T10:45:19.291Z,6.96
2023-03-05T10:47:52.759Z,7.00
2023-03-05T10:50:24.767Z,7.13
2023-03-05T10:53:05.926Z,7.19
2023-03-05T10:55:33.850Z,7.26
2023-03-05T10:58:02.507Z,7.33
2023-03-05T11:00:32.269Z,7.36
2023-03-05T11:03:02.609Z,7.36
2023-03-05T11:05:47.369Z,7.36
2023-03-05T11:08:28.776Z,7.44
2023-03-05T11:11:12.542Z,7.55
2023-03-05T11:13:56.967Z,7.67
2023-03-05T11:16:28.179Z,7.70
2023-03-05T11:19:18.630Z,7.50
2023-03-05T11:22:05.763Z,7.42
2023-03-05T11:24:33.890Z,7.67
2023-03-05T11:27:01.932Z,7.71
2023-03-05T11:29:32.295Z,7.37
2023-03-05T11:32:17.246Z,7.55
2023-03-05T11:34:45.476Z,7.76
2023-03-05T11:37:24.530Z,7.72
2023-03-05T11:40:17.206Z,7.76
2023-03-05T11:42:45.710Z,7.98
2023-03-05T11:45:19.202Z,8.04
2023-03-05T11:47:50.384Z,8.04
2023-03-05T11:50:23.013Z,7.79
2023-03-05T11:52:53.819Z,8.04
2023-03-05T11:55:28.277Z,8.29
2023-03-05T11:58:05.856Z,8.20
2023-03-05T12:00:37.963Z,7.93
2023-03-05T12:03:12.990Z,8.14
2023-03-05T12:05:44.641Z,8.41
2023-03-05T12:08:19.817Z,8.55
2023-03-05T12:10:47.949Z,8.53
2023-03-05T12:13:24.794Z,8.53
2023-03-05T12:16:05.242Z,8.37
2023-03-05T12:18:46.168Z,8.46
2023-03-05T12:21:26.105Z,8.66
2023-03-05T12:23:59.054Z,8.29
2023-03-05T12:26:56.209Z,8.52
2023-03-05T12:29:38.568Z,8.50
2023-03-05T12:32:28.957Z,8.41
2023-03-05T12:35:00.430Z,8.61
2023-03-05T12:38:25.606Z,8.70
2023-03-05T12:41:43.006Z,8.69
2023-03-05T12:44:19.420Z,8.60
2023-03-05T12:47:08.682Z,8.79
2023-03-05T12:49:40.649Z,8.79
2023-03-05T12:52:17.656Z,8.83
2023-03-05T12:54:45.590Z,9.05
2023-03-05T12:57:19.683Z,9.23
2023-03-05T12:59:51.486Z,9.32
2023-03-05T13:02:28.329Z,9.04
2023-03-05T13:05:02.054Z,8.87
2023-03-05T13:07:30.005Z,8.95
2023-03-05T13:09:59.809Z,9.06
2023-03-05T13:12:30.444Z,9.32
2023-03-05T13:15:04.556Z,9.46
2023-03-05T13:17:38.134Z,9.44
2023-03-05T13:23:18.286Z,9.31
2023-03-05T13:25:57.038Z,9.33
2023-03-05T13:28:25.516Z,9.55
2023-03-05T13:30:55.861Z,9.75
2023-03-05T13:33:27.523Z,9.89
2023-03-05T13:35:56.040Z,10.11
2023-03-05T13:38:30.961Z,10.35
2023-03-05T13:41:07.462Z,10.63
2023-03-05T13:43:35.861Z,10.83
2023-03-05T13:46:03.856Z,10.88
2023-03-05T13:48:31.865Z,10.83
2023-03-05T13:51:00.330Z,10.76
2023-03-05T13:53:31.386Z,10.56
2023-03-05T13:56:02.270Z,10.69
2023-03-05T13:58:47.406Z,10.98
2023-03-05T14:01:21.885Z,10.62
2023-03-05T14:03:52.058Z,10.53
2023-03-05T14:06:22.771Z,10.51
2023-03-05T14:08:53.771Z,10.72
2023-03-05T14:11:23.205Z,10.83
2023-03-05T14:14:04.164Z,10.81
2023-03-05T14:16:33.775Z,11.16
2023-03-05T14:19:03.440Z,11.06
2023-03-05T14:21:45.997Z,11.17
2023-03-05T14:24:22.140Z,11.48
2023-03-05T14:26:52.882Z,11.69
2023-03-05T14:29:24.275Z,11.87
2023-03-05T14:31:54.301Z,11.89
2023-03-05T14:34:27.171Z,12.12
2023-03-05T14:36:57.089Z,12.12
2023-03-05T14:39:31.824Z,12.15
2023-03-05T14:42:33.788Z,11.94
2023-03-05T14:45:03.221Z,11.50
2023-03-05T14:47:31.354Z,11.23
2023-03-05T14:49:59.267Z,11.23
2023-03-05T14:52:28.289Z,11.15
2023-03-05T14:54:57.758Z,11.20
2023-03-05T14:57:28.779Z,11.19
2023-03-05T14:59:56.847Z,11.41
2023-03-05T15:02:26.675Z,11.44
2023-03-05T15:04:54.661Z,11.28
2023-03-05T15:07:26.905Z,11.27
2023-03-05T15:09:55.005Z,11.38
2023-03-05T15:12:25.350Z,11.56
2023-03-05T15:14:53.972Z,11.67
2023-03-05T15:17:24.580Z,11.77
2023-03-05T15:19:53.817Z,11.82
2023-03-05T15:22:21.757Z,11.75
2023-03-05T15:24:49.825Z,11.98
2023-03-05T15:27:17.718Z,12.26
2023-03-05T15:29:46.990Z,11.98
2023-03-05T15:32:15.048Z,11.85
2023-03-05T15:34:43.184Z,11.67
2023-03-05T15:37:11.202Z,11.65
2023-03-05T15:39:39.175Z,11.51
2023-03-05T15:42:07.435Z,11.01
2023-03-05T15:44:35.421Z,10.87
2023-03-05T15:47:04.731Z,11.00
2023-03-05T15:49:32.685Z,10.97
2023-03-05T15:52:00.921Z,10.84
2023-03-05T15:54:28.961Z,10.90
2023-03-05T15:56:56.869Z,10.78
2023-03-05T15:59:25.236Z,10.73
2023-03-05T16:01:53.139Z,10.77
2023-03-05T16:04:22.469Z,10.77
2023-03-05T16:06:51.565Z,10.74
2023-03-05T16:09:21.817Z,10.75
2023-03-05T16:11:51.572Z,10.80
2023-03-05T16:14:23.638Z,10.75
2023-03-05T16:16:53.774Z,10.75
2023-03-05T16:19:25.493Z,10.68
2023-03-05T16:21:53.372Z,10.74
2023-03-05T16:24:21.266Z,10.85
2023-03-05T16:26:49.201Z,10.83
2023-03-05T16:29:17.094Z,10.65
2023-03-05T16:31:45.465Z,10.56
2023-03-05T16:34:16.241Z,10.67
2023-03-05T16:36:52.154Z,10.75
2023-03-05T16:39:20.940Z,10.58
2023-03-05T16:41:49.183Z,10.55
2023-03-05T16:44:17.138Z,10.40
2023-03-05T16:46:49.174Z,10.31
2023-03-05T16:49:17.805Z,10.25
2023-03-05T16:51:45.683Z,10.19
2023-03-05T16:54:14.981Z,10.02
2023-03-05T16:56:42.870Z,9.97
2023-03-05T16:59:11.680Z,10.17
2023-03-05T17:01:39.624Z,10.16
2023-03-05T17:04:08.411Z,9.95
2023-03-05T17:06:36.357Z,9.94
2023-03-05T17:09:04.841Z,10.01
2023-03-05T17:11:34.194Z,9.96
2023-03-05T17:14:03.979Z,9.98
2023-03-05T17:16:32.058Z,9.95
2023-03-05T17:19:00.003Z,9.82
2023-03-05T17:21:27.920Z,9.72
2023-03-05T17:23:56.826Z,9.68
2023-03-05T17:26:24.737Z,9.56
2023-03-05T17:28:54.623Z,9.45
2023-03-05T17:31:22.630Z,9.33
2023-03-05T17:33:50.872Z,9.12
2023-03-05T17:36:20.882Z,9.05
2023-03-05T17:38:50.170Z,8.87
2023-03-05T17:41:19.984Z,8.62
2023-03-05T17:43:47.937Z,8.53
2023-03-05T17:46:18.091Z,8.55
2023-03-05T17:48:46.265Z,8.43
2023-03-05T17:51:16.648Z,8.38
2023-03-05T17:53:44.841Z,8.39
2023-03-05T17:56:14.342Z,8.31
2023-03-05T17:58:42.488Z,8.17
2023-03-05T18:01:10.626Z,8.20
2023-03-05T18:03:40.766Z,8.01
2023-03-05T18:06:08.765Z,7.99
2023-03-05T18:08:36.679Z,8.02
2023-03-05T18:11:04.637Z,7.98
2023-03-05T18:13:32.556Z,7.92
2023-03-05T18:16:01.212Z,7.90
2023-03-05T18:18:29.255Z,7.82
2023-03-05T18:20:58.623Z,7.75
2023-03-05T18:23:26.488Z,7.66
2023-03-05T18:25:54.432Z,7.47
2023-03-05T18:28:22.337Z,7.44
2023-03-05T18:30:50.264Z,7.43
2023-03-05T18:33:21.205Z,7.51
2023-03-05T18:35:52.169Z,7.56
2023-03-05T18:38:22.798Z,7.53
2023-03-05T18:40:51.546Z,7.50
2023-03-05T18:43:20.736Z,7.25
2023-03-05T18:45:49.428Z,7.21
2023-03-05T18:48:17.527Z,7.25
2023-03-05T18:50:45.860Z,7.25
2023-03-05T18:53:16.898Z,7.19
2023-03-05T18:55:46.313Z,7.14
2023-03-05T18:58:15.493Z,7.09
2023-03-05T19:00:44.898Z,7.05
2023-03-05T19:03:13.271Z,7.01
2023-03-05T19:05:42.822Z,6.97
2023-03-05T19:08:11.080Z,6.90
2023-03-05T19:10:39.060Z,6.88
2023-03-05T19:13:24.120Z,6.80
2023-03-05T19:15:52.445Z,6.73
2023-03-05T19:18:20.739Z,6.68
2023-03-05T19:20:55.650Z,6.64
2023-03-05T19:23:23.599Z,6.63
2023-03-05T19:25:51.502Z,6.65
2023-03-05T19:28:21.271Z,6.61
2023-03-05T19:30:49.375Z,6.53
2023-03-05T19:33:17.322Z,6.44
2023-03-05T19:35:45.841Z,6.39
2023-03-05T19:38:13.805Z,6.35
2023-03-05T19:40:42.388Z,6.34
2023-03-05T19:43:10.294Z,6.32
2023-03-05T19:45:39.589Z,6.31
2023-03-05T19:48:08.528Z,6.30
2023-03-05T19:50:36.446Z,6.26
2023-03-05T19:53:04.344Z,6.20
2023-03-05T19:55:32.341Z,6.20
2023-03-05T19:58:00.218Z,6.21
2023-03-05T20:00:28.269Z,6.15
2023-03-05T20:02:58.879Z,6.13
2023-03-05T20:05:26.915Z,6.08
2023-03-05T20:07:54.881Z,6.02
2023-03-05T20:10:23.032Z,5.95
2023-03-05T20:12:51.379Z,5.89
2023-03-05T20:15:19.744Z,5.84
2023-03-05T20:17:47.900Z,5.77
2023-03-05T20:20:19.149Z,5.74
2023-03-05T20:22:48.286Z,5.69
2023-03-05T20:25:21.120Z,5.65
2023-03-05T20:27:49.104Z,5.61
2023-03-05T20:30:17.973Z,5.60
2023-03-05T20:32:46.072Z,5.56
2023-03-05T20:35:15.529Z,5.56
2023-03-05T20:38:00.299Z,5.56
2023-03-05T20:40:28.413Z,5.54
2023-03-05T20:42:56.358Z,5.52
2023-03-05T20:45:24.353Z,5.47
2023-03-05T20:47:52.294Z,5.44
2023-03-05T20:50:20.750Z,5.48
2023-03-05T20:52:50.033Z,5.39
2023-03-05T20:55:17.947Z,5.34
2023-03-05T20:57:46.302Z,5.30
2023-03-05T21:00:15.150Z,5.33
2023-03-05T21:02:43.079Z,5.32
2023-03-05T21:05:12.565Z,5.30
2023-03-05T21:07:40.498Z,5.33
2023-03-05T21:10:10.993Z,5.32
2023-03-05T21:12:39.004Z,5.27
2023-03-05T21:15:08.159Z,5.26
2023-03-05T21:17:36.116Z,5.29
2023-03-05T21:20:05.877Z,5.25
2023-03-05T21:22:34.012Z,5.22
2023-03-05T21:25:13.389Z,5.20
2023-03-05T21:27:43.070Z,5.17
2023-03-05T21:30:12.440Z,5.17
2023-03-05T21:32:40.442Z,5.17
2023-03-05T21:35:09.208Z,5.14
2023-03-05T21:37:42.412Z,5.10
2023-03-05T21:40:12.402Z,5.13
2023-03-05T21:42:40.375Z,5.16
2023-03-05T21:45:12.756Z,4.99
2023-03-05T21:47:41.128Z,4.92
2023-03-05T21:50:11.911Z,4.93
2023-03-05T21:52:40.568Z,4.94
2023-03-05T21:55:11.953Z,4.95
2023-03-05T21:57:39.884Z,4.89
2023-03-05T22:00:12.448Z,4.95
2023-03-05T22:02:41.814Z,4.94
2023-03-05T22:05:13.374Z,4.94
2023-03-05T22:07:41.510Z,4.93
2023-03-05T22:10:12.840Z,4.93
2023-03-05T22:12:53.202Z,4.87
2023-03-05T22:15:22.723Z,4.84
2023-03-05T22:17:50.649Z,4.87
2023-03-05T22:20:19.485Z,4.88
2023-03-05T22:22:47.784Z,4.86
2023-03-05T22:25:16.646Z,4.86
2023-03-05T22:27:45.309Z,4.87
2023-03-05T22:30:14.422Z,4.88
2023-03-05T22:32:43.810Z,4.84
2023-03-05T22:35:14.166Z,4.83
2023-03-05T22:37:42.452Z,4.83
2023-03-05T22:40:14.658Z,4.80
2023-03-05T22:42:42.657Z,4.72
2023-03-05T22:45:11.281Z,4.70
2023-03-05T22:47:39.211Z,4.69
2023-03-05T22:50:10.060Z,4.66
2023-03-05T22:52:38.002Z,4.69
2023-03-05T22:55:06.863Z,4.70
2023-03-05T22:57:34.859Z,4.71
2023-03-05T23:00:02.993Z,4.69
2023-03-05T23:02:31.216Z,4.67
2023-03-05T23:05:00.538Z,4.67
2023-03-05T23:07:32.778Z,4.63
2023-03-05T23:10:02.808Z,4.64
2023-03-05T23:12:32.977Z,4.64
2023-03-05T23:15:01.732Z,4.57
2023-03-05T23:17:30.182Z,4.51
2023-03-05T23:19:58.168Z,4.49
2023-03-05T23:22:26.072Z,4.39
2023-03-05T23:24:55.372Z,4.37
2023-03-05T23:27:23.362Z,4.35
2023-03-05T23:30:04.588Z,4.36
2023-03-05T23:32:32.878Z,4.28
2023-03-05T23:35:00.798Z,4.27
2023-03-05T23:37:28.696Z,4.24
2023-03-05T23:39:57.972Z,4.22
2023-03-05T23:42:25.823Z,4.20
2023-03-05T23:44:55.240Z,4.19
2023-03-05T23:47:23.180Z,4.14
2023-03-05T23:49:51.171Z,4.12
2023-03-05T23:52:19.049Z,4.13
2023-03-05T23:54:46.944Z,4.14
2023-03-05T23:57:16.223Z,4.12
2023-03-05T23:59:44.097Z,4.15
